Terminal Aerodrome Forecast
Issued by NWS

Home | Current Version | Previous Version | Text Only | Print | Product List | Glossary On
Versions: 1 2 3 4 5 6 7 8 9 10 11 12 13 14 15
000
FTUS41 KBTV 201733
TAFSLK
TAF
KSLK 201733Z 2018/2118 04008KT P6SM FEW250
     FM210000 04004KT P6SM SCT250
     FM210400 00000KT 2SM BR SCT250
     FM210500 00000KT 1/4SM FG VV001
     FM211300 VRB03KT 4SM BR BKN002
     FM211400 04004KT P6SM FEW200=

USA.gov is the U.S. government's official web portal to all federal, state and local government web resources and services.